Latest Weather Observations for Christmas Island

IDW60801

Issued at 11:54 pm WST Friday 28 February 2020 (issued every 10 minutes, with the page automatically refreshed every 10 minutes)

About weather observations | Map of weather stations | Latest weather observations for WA | Other Formats
Station Details ID: 200790 Name: CHRISTMAS ISLAND AERO Lat: -10.45 Lon: 105.69 Height: 261.0 m
Data from the previous 72 hours. | See also: Recent months at Christmas Island
Date/Time
WST
Temp
°C
App
Temp
°C
Dew
Point
°C
Rel
Hum
%
Delta-T
°C
Wind Press
QNH
hPa
Press
MSL
hPa
Rain since
9am
mm
Dir  Spd
km/h
Gust
km/h
Spd
kts
Gust
kts
28/11:30pm 23.5 26.0 22.5 94 0.7 SW 13 22 7 12 1011.4 - 22.8
28/11:00pm 24.4 28.0 23.7 96 0.5 SW 11 17 6 9 1011.5 1009.9 22.8
28/10:30pm 24.8 30.7 24.1 96 0.5 CALM 0 6 0 3 1011.0 - 22.8
28/10:00pm 24.7 30.5 24.0 96 0.5 CALM 0 0 0 0 1010.7 1009.1 22.8
28/09:30pm 25.0 30.3 24.3 96 0.5 S 4 6 2 3 1010.5 - 22.8
28/09:00pm 25.1 31.1 24.2 95 0.6 CALM 0 0 0 0 1010.3 1008.8 22.8
28/08:30pm 25.4 31.5 24.4 94 0.7 CALM 0 0 0 0 1009.9 - 22.8
28/08:00pm 25.6 31.8 24.6 94 0.7 CALM 0 0 0 0 1009.6 1008.1 22.8
28/07:30pm 26.1 32.4 24.7 92 1.0 CALM 0 0 0 0 1009.2 - 22.8
28/07:00pm 26.5 31.9 24.5 89 1.4 S 4 9 2 5 1008.8 1007.1 22.8
28/06:53pm 26.8 31.7 24.6 88 1.5 S 7 11 4 6 1008.7 - 22.8
28/06:44pm 26.7 31.7 24.5 88 1.5 SSE 6 9 3 5 1008.7 1007.0 22.8
28/06:42pm 26.8 31.7 24.6 88 1.5 S 7 11 4 6 1008.7 - 22.8
28/06:36pm 27.2 32.2 24.8 87 1.7 S 7 13 4 7 1008.6 - 22.8
28/06:30pm 27.2 32.2 24.8 87 1.7 S 7 13 4 7 1008.6 - 22.8
28/06:27pm 27.2 32.2 24.8 87 1.7 SSE 7 13 4 7 1008.6 1006.9 22.8
28/06:25pm 27.2 32.2 24.8 87 1.7 S 7 13 4 7 1008.6 - 22.8
28/06:00pm 27.7 33.0 24.9 85 2.0 SSE 6 11 3 6 1008.5 1006.7 22.6
28/05:38pm 27.1 32.0 24.6 86 1.8 SSE 7 13 4 7 1008.3 - 22.6
28/05:30pm 27.1 32.0 24.7 87 1.7 SSE 7 13 4 7 1008.3 - 22.6
28/05:29pm 27.2 32.2 24.8 87 1.7 SSE 7 13 4 7 1008.3 1006.6 22.6
28/05:27pm 27.1 32.0 24.6 86 1.8 SSE 7 13 4 7 1008.3 - 22.6
28/05:23pm 27.2 32.1 24.6 86 1.8 SSE 7 13 4 7 1008.3 - 22.6
28/05:19pm 27.2 32.1 24.6 86 1.8 S 7 13 4 7 1008.2 - 22.6
28/05:14pm 27.2 32.1 24.7 86 1.8 SSE 7 13 4 7 1008.3 1006.6 22.6
28/05:12pm 27.2 32.1 24.6 86 1.8 SSE 7 13 4 7 1008.3 - 22.6
28/05:10pm 27.1 32.0 24.6 86 1.8 SSE 7 13 4 7 1008.3 1006.6 22.6
28/05:08pm 27.2 32.1 24.6 86 1.8 S 7 13 4 7 1008.2 - 22.6
28/05:00pm 27.0 31.8 24.5 86 1.8 SSE 7 9 4 5 1008.3 1006.6 22.6
28/04:30pm 26.7 32.2 24.7 89 1.4 ENE 4 11 2 6 1008.4 - 22.6
28/04:00pm 26.3 31.1 24.5 90 1.3 WNW 7 11 4 6 1008.6 1006.9 22.6
28/03:30pm 26.4 31.9 24.6 90 1.3 NE 4 9 2 5 1008.8 - 22.6
28/03:03pm 26.2 30.9 25.0 93 0.8 NE 9 11 5 6 1009.1 - 22.6
28/03:00pm 26.0 30.4 24.4 91 1.1 NE 9 11 5 6 1009.2 1007.3 22.6
28/02:52pm 26.2 30.9 25.0 93 0.8 NE 9 11 5 6 1009.1 1007.4 22.6
28/02:51pm 26.2 31.3 25.0 93 0.8 NE 7 11 4 6 1009.1 - 22.6
28/02:30pm 26.2 30.6 24.4 90 1.3 ENE 9 15 5 8 1009.5 - 8.8
28/02:27pm 26.0 30.4 24.4 91 1.1 ENE 9 20 5 11 1009.4 - 18.0
28/02:16pm 26.2 30.7 24.6 91 1.1 N 9 15 5 8 1009.7 - 6.2
28/02:07pm 25.8 29.6 24.0 90 1.2 N 11 15 6 8 1009.7 1008.1 7.2
28/02:06pm 25.8 29.6 24.0 90 1.2 N 11 15 6 8 1009.7 - 7.2
28/02:00pm 26.2 30.6 24.4 90 1.3 NNE 9 13 5 7 1009.7 1008.1 4.2
28/01:52pm 26.0 30.3 24.2 90 1.3 ENE 9 13 5 7 1009.9 - 4.2
28/01:48pm 26.7 31.1 25.1 91 1.1 E 11 13 6 7 1009.9 - 4.0
28/01:42pm 26.6 30.8 24.8 90 1.3 ESE 11 13 6 7 1010.0 - 3.6
28/01:41pm 26.3 30.9 24.7 91 1.1 ENE 9 13 5 7 1009.9 1008.3 4.2
28/01:40pm 26.3 30.9 24.7 91 1.1 ENE 9 13 5 7 1009.9 - 4.2
28/01:39pm 26.3 30.4 24.5 90 1.3 ENE 11 13 6 7 1009.9 1008.3 4.2
28/01:37pm 26.7 31.1 25.1 91 1.1 E 11 13 6 7 1009.9 - 4.0
28/01:33pm 26.6 30.8 24.8 90 1.3 ESE 11 13 6 7 1010.0 1008.4 3.6
28/01:31pm 26.6 30.8 24.8 90 1.3 ESE 11 13 6 7 1010.0 - 3.6
28/01:30pm 27.1 32.7 25.7 92 1.0 SE 7 11 4 6 1010.2 - 2.8
28/01:18pm 27.4 33.2 26.0 92 1.0 SE 7 11 4 6 1010.2 - 2.4
28/01:14pm 26.6 30.2 24.4 88 1.5 SE 13 17 7 9 1010.3 - 1.2
28/01:08pm 26.9 31.1 24.7 88 1.5 SE 11 17 6 9 1010.4 - 0.0
28/01:05pm 26.5 30.2 24.5 89 1.4 SE 13 17 7 9 1010.3 1008.7 1.2
28/01:04pm 26.5 30.2 24.5 89 1.4 SE 13 17 7 9 1010.3 - 1.2
28/01:03pm 26.8 30.9 24.6 88 1.5 SE 11 17 6 9 1010.3 1008.7 1.0
28/01:00pm 26.7 30.7 24.4 87 1.6 SE 11 17 6 9 1010.4 1008.8 0.0
28/12:57pm 26.9 31.1 24.7 88 1.5 SE 11 17 6 9 1010.4 - 0.0
28/12:47pm 27.1 31.1 24.4 85 1.9 SSE 11 19 6 10 1010.6 - 0.0
28/12:38pm 27.3 31.4 24.6 85 1.9 SSE 11 19 6 10 1010.6 1009.0 0.0
28/12:36pm 27.1 31.1 24.4 85 1.9 SSE 11 19 6 10 1010.6 - 0.0
28/12:30pm 27.3 31.7 25.1 88 1.6 S 11 22 6 12 1010.7 - 0.0
28/12:02pm 28.2 31.9 24.6 81 2.5 SSE 13 19 7 10 1010.8 - 0.0
28/12:00pm 27.5 31.4 24.9 86 1.8 SSE 13 20 7 11 1010.8 1009.2 0.0
28/11:53am 28.1 31.8 24.5 81 2.5 SSE 13 19 7 10 1010.8 1009.2 0.0
28/11:51am 28.2 32.3 24.6 81 2.5 SSE 11 19 6 10 1010.8 - 0.0
28/11:30am 27.8 31.7 24.2 81 2.5 SSE 11 19 6 10 1010.9 - 0.0
28/11:00am 27.6 31.9 24.2 82 2.4 SSE 9 13 5 7 1011.0 1009.5 0.0
28/10:30am 28.3 32.7 24.5 80 2.7 SSE 9 20 5 11 1011.1 - 0.0
28/10:00am 28.0 31.6 23.8 78 2.9 SSE 11 17 6 9 1011.0 1009.4 0.0
28/09:56am 28.0 31.9 23.6 77 3.1 SSE 9 15 5 8 1011.0 - 0.0
28/09:47am 28.1 32.2 23.9 78 2.9 SSE 9 15 5 8 1011.0 1009.4 0.0
28/09:45am 28.0 31.9 23.6 77 3.1 SSE 9 15 5 8 1011.0 - 0.0
28/09:38am 27.8 31.7 24.2 81 2.5 SSE 11 17 6 9 1011.1 - 0.0
28/09:30am 27.8 31.6 24.0 80 2.6 SE 11 17 6 9 1011.1 - 0.0
28/09:29am 27.8 31.6 24.0 80 2.6 SE 11 17 6 9 1011.1 1009.5 0.0
28/09:27am 27.8 31.7 24.2 81 2.5 SSE 11 17 6 9 1011.1 - 0.0
28/09:00am 27.6 31.6 23.8 80 2.6 SSE 9 13 5 7 1010.8 1009.3 0.0
28/08:30am 27.0 31.5 23.7 82 2.3 S 6 11 3 6 1010.8 - 0.0
28/08:00am 25.7 30.2 23.9 90 1.2 S 7 11 4 6 1010.5 1008.9 0.0
28/07:30am 24.5 30.1 23.5 94 0.7 CALM 0 0 0 0 1010.0 - 0.0
28/07:00am 24.5 29.3 23.5 94 0.7 WSW 4 7 2 4 1009.8 1008.2 0.0
28/06:30am 24.5 29.2 23.3 93 0.8 WSW 4 6 2 3 1009.8 - 0.0
28/06:00am 24.5 29.9 23.3 93 0.8 CALM 0 7 0 4 1009.7 1008.1 0.0
28/05:30am 24.6 29.0 23.4 93 0.8 SW 6 7 3 4 1009.5 - 0.0
28/05:00am 24.7 29.9 23.5 93 0.8 SW 2 7 1 4 1009.4 1007.8 0.0
28/04:30am 24.7 29.5 23.5 93 0.8 SW 4 9 2 5 1009.4 - 0.0
28/04:00am 24.9 29.6 23.9 94 0.7 SW 6 9 3 5 1009.7 1008.1 0.0
28/03:30am 24.9 29.4 23.9 94 0.7 SW 7 9 4 5 1010.0 - 0.0
28/03:00am 24.8 29.2 23.8 94 0.7 WSW 7 11 4 6 1010.4 1008.8 0.0
28/02:30am 24.8 29.3 23.6 93 0.8 WSW 6 7 3 4 1010.8 - 0.0
28/02:00am 24.9 29.3 23.5 92 1.0 WSW 6 7 3 4 1010.9 1009.4 0.0
28/01:30am 24.9 29.1 23.5 92 1.0 SW 7 9 4 5 1011.2 - 0.0
28/01:00am 24.8 29.0 23.4 92 1.0 W 7 9 4 5 1011.7 1010.1 0.0
28/12:30am 24.9 29.3 23.5 92 1.0 W 6 9 3 5 1011.9 - 0.0
28/12:00am 25.0 29.5 23.6 92 1.0 W 6 9 3 5 1012.1 1010.4 0.0
 
Date/Time
WST
Temp
°C
App
Temp
°C
Dew
Point
°C
Rel
Hum
%
Delta-T
°C
Wind Press
QNH
hPa
Press
MSL
hPa
Rain since
9am
mm
Dir  Spd
km/h
Gust
km/h
Spd
kts
Gust
kts
27/11:30pm 25.1 29.5 23.5 91 1.1 W 6 7 3 4 1012.3 - 0.0
27/11:00pm 25.3 29.7 23.5 90 1.2 WSW 6 9 3 5 1012.1 1010.4 0.0
27/10:30pm 25.4 29.7 23.6 90 1.2 WSW 7 11 4 6 1012.1 - 0.0
27/10:02pm 25.4 29.9 23.6 90 1.2 WSW 6 9 3 5 1011.6 - 0.0
27/10:00pm 25.4 29.7 23.6 90 1.2 WSW 7 9 4 5 1011.7 1010.1 0.0
27/09:51pm 25.4 29.9 23.6 90 1.2 WSW 6 9 3 5 1011.6 - 0.0
27/09:42pm 25.5 30.0 23.7 90 1.2 WSW 6 9 3 5 1011.4 - 0.0
27/09:30pm 25.5 29.8 23.7 90 1.2 WSW 7 9 4 5 1011.4 - 0.0
27/09:00pm 25.7 30.5 24.1 91 1.1 WSW 6 9 3 5 1011.1 1009.5 0.0
27/08:30pm 25.9 30.7 24.1 90 1.2 WSW 6 7 3 4 1010.8 - 0.0
27/08:00pm 26.1 30.6 24.0 88 1.5 SW 7 11 4 6 1010.6 1008.9 0.0
27/07:30pm 26.5 30.9 23.8 85 1.9 W 7 11 4 6 1010.3 - 0.0
27/07:00pm 26.9 31.0 24.0 84 2.0 WSW 9 15 5 8 1009.9 1008.3 0.0
27/06:30pm 27.6 31.1 23.6 79 2.8 SW 11 17 6 9 1009.6 - 0.0
27/06:00pm 27.9 31.7 23.5 77 3.0 WSW 9 17 5 9 1009.2 1007.6 0.0
27/05:30pm 29.3 32.7 24.0 73 3.7 W 13 19 7 10 1008.9 - 0.0
27/05:00pm 29.4 33.2 24.7 76 3.3 W 13 20 7 11 1008.8 1007.1 0.0
27/04:30pm 29.3 32.2 24.4 75 3.4 WNW 17 24 9 13 1008.8 - 0.0
27/04:00pm 29.3 31.7 23.7 72 3.9 WNW 17 24 9 13 1008.9 1007.2 0.0
27/03:30pm 28.9 31.1 23.3 72 3.9 WNW 17 26 9 14 1009.1 - 0.0
27/03:00pm 29.5 31.9 23.7 71 4.0 WNW 17 26 9 14 1009.5 1007.9 0.0
27/02:30pm 29.5 32.4 24.4 74 3.6 W 17 28 9 15 1009.8 - 0.0
27/02:00pm 29.6 32.9 24.5 74 3.6 NW 15 24 8 13 1010.3 1008.7 0.0
27/01:30pm 29.4 32.6 24.3 74 3.6 WNW 15 24 8 13 1010.7 - 0.0
27/01:00pm 28.5 31.2 24.1 77 3.1 WNW 17 24 9 13 1011.0 1009.7 0.0
27/12:30pm 29.5 32.7 24.4 74 3.6 NW 15 22 8 12 1011.3 - 0.0
27/12:00pm 29.0 32.8 24.1 75 3.4 NW 11 17 6 9 1011.5 1009.9 0.0
27/11:30am 29.3 33.4 24.6 76 3.3 WNW 11 50 6 27 1011.4 - 0.0
27/11:00am 29.1 33.7 24.2 75 3.4 W 7 15 4 8 1011.5 1009.9 0.0
27/10:52am 29.6 - - - - WNW 11 22 6 12 1011.4 - 0.0
27/10:40am 28.4 32.2 24.0 77 3.1 WNW 11 17 6 9 1011.6 - 0.0
27/10:33am 28.4 32.2 24.0 77 3.1 WNW 11 20 6 11 1011.7 - 0.0
27/10:30am 28.7 32.8 24.5 78 2.9 WNW 11 17 6 9 1011.5 - 0.0
27/10:21am 28.5 33.4 24.7 80 2.7 W 7 13 4 7 1011.5 - 0.0
27/10:10am 28.3 33.2 24.3 79 2.8 WNW 6 11 3 6 1011.5 - 0.0
27/10:00am 28.4 33.3 24.4 79 2.8 W 6 13 3 7 1011.4 1009.9 0.0
27/09:56am 28.0 32.1 24.0 79 2.8 WNW 9 13 5 7 1011.4 - 0.0
27/09:30am 27.3 32.0 24.0 82 2.3 SW 6 15 3 8 1011.4 - 0.0
27/09:00am 27.2 32.0 24.5 85 1.9 WSW 7 13 4 7 1011.4 1009.7 0.0
27/08:30am 26.1 30.9 24.5 91 1.1 SW 7 11 4 6 1011.2 - 0.0
27/08:00am 25.3 31.6 24.8 97 0.4 CALM 0 0 0 0 1011.0 1009.4 0.0
27/07:30am 24.5 29.3 24.2 98 0.2 W 6 9 3 5 1010.7 - 0.0
27/07:00am 23.6 27.7 23.3 98 0.2 W 7 9 4 5 1010.4 1008.8 0.0
27/06:30am 23.6 28.3 23.3 98 0.2 W 4 6 2 3 1010.0 - 0.0
27/06:00am 23.6 28.5 23.1 97 0.3 W 2 6 1 3 1009.8 1008.2 0.0
27/05:30am 23.9 28.3 23.4 97 0.3 W 6 6 3 3 1009.8 - 0.0
27/05:00am 23.7 27.9 23.2 97 0.3 W 6 6 3 3 1009.9 1008.3 0.0
27/04:30am 23.7 27.9 23.2 97 0.3 W 6 6 3 3 1009.8 1008.2 0.0
27/04:00am 23.7 28.3 23.2 97 0.3 W 4 6 2 3 1009.7 1008.1 0.0
27/03:30am 23.7 29.1 23.2 97 0.3 CALM 0 0 0 0 1010.1 1008.5 0.0
27/03:00am 23.8 28.1 23.3 97 0.3 W 6 7 3 4 1010.4 1008.8 0.0
27/02:30am 23.9 28.3 23.4 97 0.3 W 6 7 3 4 1010.8 1009.2 0.0
27/02:00am 24.0 28.3 23.3 96 0.5 W 6 7 3 4 1011.1 1009.5 0.0
27/01:30am 24.1 28.5 23.4 96 0.5 W 6 7 3 4 1011.3 1009.7 0.0
27/01:00am 24.2 28.6 23.5 96 0.5 W 6 7 3 4 1011.5 1009.9 0.0
27/12:30am 24.4 28.7 23.7 96 0.5 W 7 9 4 5 1011.7 1010.1 0.0
27/12:00am 24.6 29.3 23.9 96 0.5 W 6 7 3 4 1012.1 1010.3 0.0
 
Date/Time
WST
Temp
°C
App
Temp
°C
Dew
Point
°C
Rel
Hum
%
Delta-T
°C
Wind Press
QNH
hPa
Press
MSL
hPa
Rain since
9am
mm
Dir  Spd
km/h
Gust
km/h
Spd
kts
Gust
kts
26/11:30pm 24.7 29.3 23.8 95 0.6 W 6 6 3 3 1012.3 1010.6 0.0
26/11:00pm 24.9 29.6 24.0 95 0.6 W 6 7 3 4 1012.3 1010.6 0.0
26/10:30pm 24.8 30.6 23.9 95 0.6 CALM 0 0 0 0 1012.2 1010.5 0.0
26/10:00pm 24.9 30.7 24.0 95 0.6 CALM 0 0 0 0 1011.6 1010.0 0.0
26/09:30pm 25.0 30.8 24.0 94 0.7 CALM 0 0 0 0 1011.4 1009.8 0.0
26/09:00pm 25.2 31.0 24.0 93 0.8 CALM 0 0 0 0 1011.4 1009.8 0.0
26/08:30pm 25.7 31.6 24.1 91 1.1 CALM 0 0 0 0 1011.1 1009.5 0.0
26/08:00pm 26.0 31.1 24.0 89 1.4 W 4 7 2 4 1010.7 1009.1 0.0
26/07:30pm 26.5 31.2 24.0 86 1.7 SW 6 7 3 4 1010.3 1008.7 0.0
26/07:00pm 27.2 31.3 23.9 82 2.3 SW 9 15 5 8 1009.9 1008.3 0.0
26/06:30pm 28.3 32.3 23.7 76 3.2 SW 9 13 5 7 1009.5 1007.9 0.0
26/06:00pm 28.4 33.0 24.2 78 2.9 S 7 15 4 8 1009.1 1007.5 0.0
26/05:30pm 27.9 31.7 24.1 80 2.7 SSE 11 20 6 11 1009.0 1007.3 0.0
26/05:00pm 27.7 31.9 24.1 81 2.5 SSE 9 17 5 9 1009.1 1007.4 0.0
26/04:30pm 28.1 31.5 24.1 79 2.8 SE 13 17 7 9 1009.0 1007.3 0.0
26/04:00pm 27.8 31.9 24.0 80 2.7 E 9 13 5 7 1009.3 1007.5 0.0
26/03:30pm 28.4 31.5 23.5 75 3.4 ESE 13 19 7 10 1009.3 1007.6 0.0
26/03:00pm 28.7 32.1 23.4 73 3.7 ESE 11 17 6 9 1009.5 1007.9 0.0
26/02:30pm 28.5 32.6 23.9 76 3.2 SE 9 17 5 9 1009.8 1008.2 0.0
26/02:00pm 28.1 32.6 23.7 77 3.1 SSE 6 9 3 5 1010.1 1008.5 0.0
26/01:30pm 27.6 32.4 24.4 83 2.2 E 7 11 4 6 1010.7 1008.9 0.0
26/01:29pm 28.2 33.1 24.6 81 2.5 ENE 7 11 4 6 1010.5 - 0.0
26/01:00pm 26.9 31.4 24.0 84 2.0 SE 7 11 4 6 1011.2 1009.5 0.0
26/12:54pm 27.6 32.2 24.2 82 2.4 E 7 11 4 6 1011.2 - 0.0
26/12:45pm 27.7 32.4 24.3 82 2.4 ENE 7 11 4 6 1011.2 1009.6 0.0
26/12:44pm 27.6 32.2 24.2 82 2.4 E 7 11 4 6 1011.2 - 0.0
26/12:30pm 27.7 32.1 24.5 83 2.2 ENE 9 13 5 7 1011.4 1009.8 0.0
26/12:05pm 28.2 33.3 24.6 81 2.5 NNW 6 13 3 7 1011.4 - 0.0
26/12:00pm 28.3 33.0 24.3 79 2.8 NNW 7 13 4 7 1011.4 1009.8 0.0
26/11:56am 28.3 33.2 24.7 81 2.5 NNW 7 13 4 7 1011.4 1009.8 0.0
26/11:55am 28.2 33.1 24.6 81 2.5 NNW 7 13 4 7 1011.4 - 0.0
26/11:41am 27.4 32.6 24.8 86 1.8 ENE 6 11 3 6 1011.4 - 0.0
26/11:30am 27.1 32.2 24.7 87 1.7 SE 6 11 3 6 1011.5 1009.9 0.0
26/11:21am 27.3 32.7 25.1 88 1.6 ESE 6 9 3 5 1011.5 - 0.0
26/11:20am 27.2 31.3 24.6 86 1.8 E 11 13 6 7 1011.5 - 0.0
26/11:12am 27.4 32.0 24.8 86 1.8 E 9 13 5 7 1011.5 1009.9 0.0
26/11:10am 27.2 31.7 24.6 86 1.8 E 9 13 5 7 1011.5 - 0.0
26/11:00am 28.3 33.6 24.9 82 2.4 SSE 6 13 3 7 1011.5 1009.9 0.0
26/10:30am 28.4 32.4 23.8 76 3.2 WNW 9 17 5 9 1011.5 1009.9 0.0
26/10:00am 28.3 32.9 24.7 81 2.5 WNW 9 17 5 9 1011.4 1009.8 12.6
26/09:30am 27.3 31.8 24.6 85 1.9 W 9 17 5 9 1011.5 1009.9 12.6
26/09:00am 26.4 31.0 24.8 91 1.1 W 9 17 5 9 1011.2 1009.6 12.6
26/08:49am 25.5 30.4 24.6 95 0.6 W 7 13 4 7 1011.1 - 12.6
26/08:38am 25.0 29.3 24.3 96 0.5 W 9 13 5 7 1011.0 - 12.6
26/08:32am 24.9 29.2 24.2 96 0.5 W 9 13 5 7 1010.9 - 12.6
26/08:30am 24.9 29.5 24.2 96 0.5 W 7 13 4 7 1010.9 1009.4 12.6
26/08:23am 24.8 28.9 23.9 95 0.6 W 9 13 5 7 1010.9 1009.3 12.6
26/08:22am 24.9 29.2 24.2 96 0.5 W 9 13 5 7 1010.9 - 12.4
26/08:05am 24.5 28.0 23.6 95 0.6 W 11 20 6 11 1010.6 - 12.4
26/08:00am 24.5 28.4 23.6 95 0.6 W 9 17 5 9 1010.5 1009.0 12.4
26/07:55am 24.5 28.0 23.6 95 0.6 WNW 11 20 6 11 1010.6 1009.0 12.4
26/07:41am 25.0 28.8 24.1 95 0.6 W 11 20 6 11 1010.4 1008.8 12.4
26/07:40am 24.9 28.7 24.0 95 0.6 W 11 20 6 11 1010.4 - 12.2
26/07:38am 25.0 28.8 24.1 95 0.6 W 11 22 6 12 1010.4 1008.8 12.4
26/07:37am 25.0 28.8 24.1 95 0.6 W 11 22 6 12 1010.4 - 12.0
26/07:31am 25.3 30.1 24.4 95 0.6 WNW 7 13 4 7 1010.2 - 11.2
26/07:30am 25.0 29.2 24.1 95 0.6 W 9 22 5 12 1010.4 1008.8 11.6
26/07:28am 25.3 30.1 24.4 95 0.6 WNW 7 13 4 7 1010.2 - 11.2
26/07:22am 25.3 30.1 24.4 95 0.6 WNW 7 13 4 7 1010.2 1008.6 11.2
26/07:19am 25.3 30.1 24.4 95 0.6 WNW 7 13 4 7 1010.2 1008.6 11.2
26/07:18am 25.3 30.1 24.4 95 0.6 WNW 7 13 4 7 1010.2 - 11.0
26/07:00am 25.2 29.9 24.3 95 0.6 W 7 13 4 7 1010.1 1008.5 11.2
26/06:37am 25.2 29.5 24.2 94 0.7 W 9 15 5 8 1010.0 - 11.2
26/06:30am 25.3 29.6 24.3 94 0.7 W 9 15 5 8 1010.0 1008.5 11.2
26/06:28am 25.2 29.5 24.2 94 0.7 W 9 15 5 8 1010.0 1008.4 11.2
26/06:27am 25.2 29.5 24.2 94 0.7 W 9 15 5 8 1010.0 - 11.0
26/06:00am 25.3 29.4 23.9 92 1.0 WNW 9 15 5 8 1010.0 1008.4 11.2
26/05:30am 25.3 29.3 23.7 91 1.1 WNW 9 15 5 8 1009.8 1008.2 11.2
26/05:16am 25.2 28.7 23.6 91 1.1 W 11 19 6 10 - - 11.0
26/05:00am 25.1 28.9 23.5 91 1.1 WNW 9 17 5 9 1009.4 1007.8 11.2
26/04:30am 24.9 28.0 23.5 92 1.0 WNW 13 20 7 11 1009.3 1007.6 11.2
26/04:00am 24.9 28.0 23.5 92 1.0 WNW 13 24 7 13 1009.4 1007.8 11.2
26/03:31am 24.8 27.6 23.6 93 0.8 WNW 15 26 8 14 1009.9 1008.3 11.2
26/03:30am 24.8 27.6 23.6 93 0.8 WNW 15 26 8 14 1009.9 1008.3 11.2
26/03:29am 24.8 27.6 23.6 93 0.8 WNW 15 26 8 14 1009.9 1008.3 11.2
26/03:17am 24.8 27.7 23.8 94 0.7 W 15 28 8 15 1010.3 - 11.2
26/03:11am 25.0 28.4 24.1 95 0.6 W 13 20 7 11 1010.5 - 11.2
26/03:10am 25.0 28.4 24.0 94 0.7 W 13 20 7 11 1010.5 - 11.2
26/03:08am 25.0 28.4 24.0 94 0.7 W 13 19 7 10 1010.5 - 11.2
26/03:05am 24.9 28.2 23.9 94 0.7 W 13 28 7 15 1010.4 1008.8 11.2
26/03:04am 25.0 28.4 24.1 95 0.6 W 13 20 7 11 1010.4 - 11.0
26/03:01am 25.0 28.4 24.1 95 0.6 W 13 20 7 11 1010.5 - 11.0
26/03:00am 25.0 28.4 24.0 94 0.7 W 13 20 7 11 1010.5 1008.9 11.2
26/02:59am 25.0 28.4 24.0 94 0.7 W 13 20 7 11 1010.7 - 11.2
26/02:56am 25.0 28.4 24.0 94 0.7 W 13 19 7 10 1010.5 1008.9 11.2
26/02:55am 25.0 28.4 24.0 94 0.7 W 13 19 7 10 1010.6 - 11.0
26/02:49am 25.0 28.4 24.0 94 0.7 W 13 20 7 11 1010.7 1009.1 11.2
26/02:30am 25.2 29.0 24.0 93 0.8 W 11 17 6 9 1011.2 1009.6 10.4
26/02:11am 25.1 28.4 23.9 93 0.8 W 13 22 7 12 1011.3 - 10.2
26/02:00am 25.1 28.0 23.9 93 0.8 W 15 24 8 13 1011.4 1009.8 10.4
26/01:40am 25.1 28.4 23.9 93 0.8 W 13 28 7 15 1011.5 - 10.2
26/01:30am 25.2 28.6 24.0 93 0.8 WNW 13 28 7 15 1011.6 1010.0 10.4
26/01:12am 25.0 27.5 23.8 93 0.8 W 17 28 9 15 1011.6 - 10.2
26/01:00am 25.2 27.9 24.2 94 0.7 WNW 17 28 9 15 1011.7 1010.1 10.4
26/12:54am 25.1 28.2 24.1 94 0.7 WNW 15 28 8 15 1011.6 - 10.2
26/12:52am 25.1 28.5 24.1 94 0.7 WNW 13 26 7 14 1011.6 - 10.2

Other formats

Comma delimited format used in spreadsheet applications
http://www.bom.gov.au/fwo/IDW60801/IDW60801.96995.axf

JavaScript Object Notation format (JSON) in row-major order
http://www.bom.gov.au/fwo/IDW60801/IDW60801.96995.json

Data quality

Most of these data are generated automatically and are frequently updated. Quality checks on data are not normally performed. It is possible for incorrect values to appear. Refer to information at About Latest Weather Observations and please check the disclaimer before using these data.